Time;durP1;ratioP1;P1;durP2;ratioP2;P2;SDS_P1;SDS_P2;PMS_P1;PMS_P2;Temp;Humidity;BMP_temperature;BMP_pressure;BME280_temperature;BME280_humidity;BME280_pressure;Samples;Min_cycle;Max_cycle;Signal;HPM_P1;HPM_P2
2023/09/01 00:00:44;;;;;;;;;;;;;;;14.51;86.88;101106.31;5062676;28;1328;-82
2023/09/01 00:03:09;;;;;;;;;;;;;;;14.48;86.63;101104.78;5053134;28;1437;-82
2023/09/01 00:05:35;;;;;;;;;;;;;;;14.47;86.68;101112.78;5047097;28;1222;-80
2023/09/01 00:08:00;;;;;;;;;;;;;;;14.46;86.69;101116.31;5055267;28;1893;-83
2023/09/01 00:10:25;;;;;;;;;;;;;;;14.45;87.06;101112.03;5054157;28;1307;-82
2023/09/01 00:12:51;;;;;;;;;;;;;;;14.41;86.96;101108.09;5064360;28;1175;-82
2023/09/01 00:15:16;;;;;;;;;;;;;;;14.38;87.00;101097.94;5046706;28;1214;-83
2023/09/01 00:17:41;;;;;;;;;;;;;;;14.37;87.02;101109.34;5064212;28;1001;-82
2023/09/01 00:20:06;;;;;;;;;;;;;;;14.35;86.78;101088.63;5060253;28;1086;-82
2023/09/01 00:22:32;;;;;;;;;;;;;;;14.33;87.30;101091.34;5055081;28;1150;-82
2023/09/01 00:24:57;;;;;;;;;;;;;;;14.31;87.37;101077.63;5060077;28;1054;-82
2023/09/01 00:27:23;;;;;;;;;;;;;;;14.27;87.22;101081.47;5055450;28;1898;-81
2023/09/01 00:29:48;;;;;;;;;;;;;;;14.25;87.16;101088.66;5054975;28;1110;-81
2023/09/01 00:32:13;;;;;;;;;;;;;;;14.22;87.11;101094.16;5059916;28;1272;-82
2023/09/01 00:34:38;;;;;;;;;;;;;;;14.19;87.22;101097.03;5059642;28;1287;-82
2023/09/01 00:37:03;;;;;;;;;;;;;;;14.15;87.25;101093.06;5056637;28;1363;-82
2023/09/01 00:39:29;;;;;;;;;;;;;;;14.14;87.19;101091.41;5044427;28;1237;-82
2023/09/01 00:41:54;;;;;;;;;;;;;;;14.11;87.54;101096.94;5055961;28;1231;-82
2023/09/01 00:44:19;;;;;;;;;;;;;;;14.07;87.38;101091.16;5060422;28;1292;-83
2023/09/01 00:46:46;;;;;;;;;;;;;;;14.05;87.36;101097.50;5054138;28;1898;-81
2023/09/01 00:49:11;;;;;;;;;;;;;;;14.03;87.73;101094.19;5065662;28;1342;-82
2023/09/01 00:51:37;;;;;;;;;;;;;;;14.00;87.65;101097.09;5062398;28;1183;-81
2023/09/01 00:54:03;;;;;;;;;;;;;;;13.97;87.84;101089.53;5060947;28;1458;-82
2023/09/01 00:56:28;;;;;;;;;;;;;;;13.88;88.03;101085.16;5051882;28;1255;-81
2023/09/01 00:58:53;;;;;;;;;;;;;;;13.85;88.34;101094.09;5059861;28;1223;-82
2023/09/01 01:01:18;;;;;;;;;;;;;;;13.82;88.67;101103.03;5049555;28;1282;-81
2023/09/01 01:03:47;;;;;;;;;;;;;;;13.75;88.88;101101.91;5063392;28;1472;-82
2023/09/01 01:06:13;;;;;;;;;;;;;;;13.69;88.83;101101.66;5064266;28;1176;-82
2023/09/01 01:08:43;;;;;;;;;;;;;;;13.65;89.07;101101.13;5054032;28;1886;-82
2023/09/01 01:11:14;;;;;;;;;;;;;;;13.66;89.37;101099.34;5060990;28;1208;-82
2023/09/01 01:13:45;;;;;;;;;;;;;;;13.68;89.47;101095.63;5063545;28;1621;-82
2023/09/01 01:16:12;;;;;;;;;;;;;;;13.69;89.39;101094.66;5050663;28;1433;-82
2023/09/01 01:18:38;;;;;;;;;;;;;;;13.69;89.57;101097.25;5051492;28;1493;-82
2023/09/01 01:21:08;;;;;;;;;;;;;;;13.71;89.51;101089.31;5056457;28;1152;-82
2023/09/01 01:23:34;;;;;;;;;;;;;;;13.73;89.49;101103.03;5045857;28;1432;-82
2023/09/01 01:25:59;;;;;;;;;;;;;;;13.73;89.76;101098.63;5064285;28;1289;-82
2023/09/01 01:28:25;;;;;;;;;;;;;;;13.73;89.73;101098.63;5062634;28;1898;-82
2023/09/01 01:30:50;;;;;;;;;;;;;;;13.71;89.45;101100.56;5060692;28;1750;-82
2023/09/01 01:33:34;;;;;;;;;;;;;;;13.68;89.81;101095.63;5064796;28;1296;-81
2023/09/01 01:36:21;;;;;;;;;;;;;;;13.66;90.07;101097.56;5049971;28;1510;-81
2023/09/01 01:38:54;;;;;;;;;;;;;;;13.63;90.33;101100.44;5064003;28;1131;-81
2023/09/01 01:41:24;;;;;;;;;;;;;;;13.65;90.28;101101.13;5061513;28;1592;-82
2023/09/01 01:43:51;;;;;;;;;;;;;;;13.65;90.21;101106.34;5046992;28;1250;-82
2023/09/01 01:46:16;;;;;;;;;;;;;;;13.63;90.61;101108.25;5045563;28;1215;-82
2023/09/01 01:48:41;;;;;;;;;;;;;;;13.61;90.61;101104.97;5053002;28;1951;-82
2023/09/01 01:51:07;;;;;;;;;;;;;;;13.60;90.57;101108.53;5056058;28;1222;-82
2023/09/01 01:53:36;;;;;;;;;;;;;;;13.57;90.78;101113.19;5055709;28;1146;-81
2023/09/01 01:56:03;;;;;;;;;;;;;;;13.51;90.97;101106.75;5063190;28;1319;-82
2023/09/01 01:58:28;;;;;;;;;;;;;;;13.46;91.32;101106.31;5049556;28;1406;-82
2023/09/01 02:00:54;;;;;;;;;;;;;;;13.43;91.34;101101.41;5054726;28;1177;-82
2023/09/01 02:03:19;;;;;;;;;;;;;;;13.40;91.74;101106.88;5058769;28;1125;-82
2023/09/01 02:05:44;;;;;;;;;;;;;;;13.40;91.42;101102.47;5059460;28;1268;-82
2023/09/01 02:08:09;;;;;;;;;;;;;;;13.38;92.21;101098.38;5057432;28;1894;-82
2023/09/01 02:10:34;;;;;;;;;;;;;;;13.41;92.04;101108.50;5044841;28;1664;-81
2023/09/01 02:13:00;;;;;;;;;;;;;;;13.45;91.65;101102.09;5060509;28;1173;-82
2023/09/01 02:15:25;;;;;;;;;;;;;;;13.48;91.88;101105.25;5064679;28;1179;-82
2023/09/01 02:17:51;;;;;;;;;;;;;;;13.51;91.94;101106.75;5057600;28;1253;-82
2023/09/01 02:20:16;;;;;;;;;;;;;;;13.53;91.82;101107.41;5063346;28;1054;-82
2023/09/01 02:22:45;;;;;;;;;;;;;;;13.52;91.80;101106.59;5058824;28;1154;-82
2023/09/01 02:25:10;;;;;;;;;;;;;;;13.53;91.72;101097.00;5050463;28;1098;-81
2023/09/01 02:27:38;;;;;;;;;;;;;;;13.53;91.67;101087.41;5045852;28;1902;-81
2023/09/01 02:30:03;;;;;;;;;;;;;;;13.54;92.31;101096.06;5058692;28;1098;-82
2023/09/01 02:32:28;;;;;;;;;;;;;;;13.54;91.68;101101.28;5066464;28;1175;-82
2023/09/01 02:34:53;;;;;;;;;;;;;;;13.52;91.61;101100.56;5058974;28;1286;-81
2023/09/01 02:37:19;;;;;;;;;;;;;;;13.50;91.87;101107.72;5054104;28;1407;-82
2023/09/01 02:39:44;;;;;;;;;;;;;;;13.50;92.02;101102.50;5049470;28;1360;-82
2023/09/01 02:42:09;;;;;;;;;;;;;;;13.51;91.86;101104.13;5055929;28;1261;-82
2023/09/01 02:44:34;;;;;;;;;;;;;;;13.51;92.04;101101.53;5069103;28;1359;-81
2023/09/01 02:47:00;;;;;;;;;;;;;;;13.50;92.04;101102.50;5060547;28;1956;-82
2023/09/01 02:49:25;;;;;;;;;;;;;;;13.50;91.88;101107.72;5037824;28;1244;-82
2023/09/01 02:51:51;;;;;;;;;;;;;;;13.48;91.97;101114.84;5046873;28;1315;-82
2023/09/01 02:54:16;;;;;;;;;;;;;;;13.49;92.14;101106.88;5064912;28;1093;-82
2023/09/01 02:56:42;;;;;;;;;;;;;;;13.49;91.97;101111.28;5063905;28;1359;-81
2023/09/01 02:59:07;;;;;;;;;;;;;;;13.48;92.08;101100.03;5062526;28;1216;-81
2023/09/01 03:01:32;;;;;;;;;;;;;;;13.46;92.30;101098.50;5055650;28;1303;-82
2023/09/01 03:03:57;;;;;;;;;;;;;;;13.44;92.35;101093.44;5057312;28;1203;-81
2023/09/01 03:06:22;;;;;;;;;;;;;;;13.40;92.66;101089.47;5061470;28;1341;-81
2023/09/01 03:08:47;;;;;;;;;;;;;;;13.38;92.49;101093.19;5058886;28;1969;-81
2023/09/01 03:11:13;;;;;;;;;;;;;;;13.34;92.70;101086.59;5046073;28;1443;-82
2023/09/01 03:13:39;;;;;;;;;;;;;;;13.30;92.59;101086.03;5062514;28;1111;-82
2023/09/01 03:16:04;;;;;;;;;;;;;;;13.26;93.07;101074.25;5066356;28;1245;-82
2023/09/01 03:18:29;;;;;;;;;;;;;;;13.23;92.72;101069.28;5049459;28;1525;-81
2023/09/01 03:20:56;;;;;;;;;;;;;;;13.22;93.02;101073.69;5049140;28;1204;-81
2023/09/01 03:23:22;;;;;;;;;;;;;;;13.19;93.23;101073.94;5049867;28;1235;-81
2023/09/01 03:25:54;;;;;;;;;;;;;;;13.19;93.66;101073.94;5062004;28;1023;-82
2023/09/01 03:28:19;;;;;;;;;;;;;;;13.20;93.74;101075.59;5060725;28;1965;-82
2023/09/01 03:30:44;;;;;;;;;;;;;;;13.21;93.45;101072.03;5042509;28;1263;-82
2023/09/01 03:33:10;;;;;;;;;;;;;;;13.23;93.89;101075.31;5057379;28;1291;-81
2023/09/01 03:35:35;;;;;;;;;;;;;;;13.27;93.85;101081.91;5052554;28;1221;-81
2023/09/01 03:38:00;;;;;;;;;;;;;;;13.31;94.04;101084.25;5053438;28;1335;-82
2023/09/01 03:40:25;;;;;;;;;;;;;;;13.32;94.10;101078.09;5059885;28;1167;-82
2023/09/01 03:42:50;;;;;;;;;;;;;;;13.33;94.00;101070.13;5052920;28;1095;-82
2023/09/01 03:45:15;;;;;;;;;;;;;;;13.32;94.09;101067.66;5039217;28;1292;-82
2023/09/01 03:47:41;;;;;;;;;;;;;;;13.32;94.25;101068.50;5044594;28;1897;-81
2023/09/01 03:50:06;;;;;;;;;;;;;;;13.30;94.37;101067.78;5054642;28;1128;-82
2023/09/01 03:52:31;;;;;;;;;;;;;;;13.31;94.73;101073.84;5034111;28;1376;-81
2023/09/01 03:54:57;;;;;;;;;;;;;;;13.28;94.66;101062.72;5056953;28;1239;-82
2023/09/01 03:57:22;;;;;;;;;;;;;;;13.26;94.59;101054.22;5065931;28;1505;-82
2023/09/01 03:59:49;;;;;;;;;;;;;;;13.27;94.65;101040.25;5062261;28;1376;-82
2023/09/01 04:02:15;;;;;;;;;;;;;;;13.29;94.80;101059.16;5064422;28;1258;-82
2023/09/01 04:04:40;;;;;;;;;;;;;;;13.32;94.63;101052.03;5057768;28;1249;-82
2023/09/01 04:07:06;;;;;;;;;;;;;;;13.34;94.83;101050.09;5064332;28;1897;-82
2023/09/01 04:09:31;;;;;;;;;;;;;;;13.36;94.79;101066.41;5064572;28;858;-83
2023/09/01 04:11:56;;;;;;;;;;;;;;;13.39;94.71;101058.34;5043744;28;1298;-82
2023/09/01 04:14:22;;;;;;;;;;;;;;;13.39;95.08;101058.34;5046945;28;1437;-82
2023/09/01 04:16:47;;;;;;;;;;;;;;;13.39;94.72;101058.34;5051911;28;1307;-82
2023/09/01 04:19:12;;;;;;;;;;;;;;;13.38;95.25;101051.50;5063025;28;1134;-82
2023/09/01 04:21:37;;;;;;;;;;;;;;;13.37;95.06;101049.84;5055786;28;1329;-82
2023/09/01 04:24:03;;;;;;;;;;;;;;;13.39;94.86;101042.72;5064527;28;1254;-82
2023/09/01 04:26:28;;;;;;;;;;;;;;;13.38;94.93;101041.06;5057047;28;1923;-82
2023/09/01 04:28:53;;;;;;;;;;;;;;;13.40;94.95;101045.16;5048919;28;1072;-82
2023/09/01 04:31:22;;;;;;;;;;;;;;;13.40;95.09;101049.56;5065162;28;1244;-82
2023/09/01 04:33:47;;;;;;;;;;;;;;;13.39;95.21;101037.50;5064890;28;1355;-82
2023/09/01 04:36:12;;;;;;;;;;;;;;;13.37;95.15;101034.22;5056155;28;1298;-82
2023/09/01 04:38:37;;;;;;;;;;;;;;;13.36;94.84;101035.16;5064732;28;1244;-82
2023/09/01 04:41:03;;;;;;;;;;;;;;;13.31;95.09;101034.78;5054783;28;2526;-82
2023/09/01 04:43:28;;;;;;;;;;;;;;;13.26;95.24;101053.41;5074278;28;1357;-82
2023/09/01 04:45:54;;;;;;;;;;;;;;;13.23;95.71;101062.31;5069985;28;1076;-82
2023/09/01 04:48:19;;;;;;;;;;;;;;;13.23;95.81;101064.91;5067089;28;1957;-82
2023/09/01 04:50:45;;;;;;;;;;;;;;;13.26;96.07;101064.66;5059633;28;1086;-82
2023/09/01 04:53:10;;;;;;;;;;;;;;;13.29;96.05;101059.16;5060439;28;1210;-81
2023/09/01 04:55:36;;;;;;;;;;;;;;;13.34;96.19;101055.31;5061704;28;1338;-82
2023/09/01 04:58:01;;;;;;;;;;;;;;;13.34;95.73;101060.53;5069091;28;1142;-82
2023/09/01 05:00:26;;;;;;;;;;;;;;;13.36;95.93;101061.19;5067316;28;1100;-82
2023/09/01 05:02:51;;;;;;;;;;;;;;;13.35;95.93;101059.56;5052569;28;1336;-82
2023/09/01 05:05:17;;;;;;;;;;;;;;;13.35;96.04;101067.38;5071382;28;1334;-82
2023/09/01 05:07:42;;;;;;;;;;;;;;;13.34;96.03;101060.53;5048583;28;1933;-82
2023/09/01 05:10:08;;;;;;;;;;;;;;;13.32;96.27;101062.47;5053872;28;1446;-82
2023/09/01 05:12:33;;;;;;;;;;;;;;;13.35;96.44;101062.16;5070186;28;1600;-82
2023/09/01 05:14:59;;;;;;;;;;;;;;;13.37;96.33;101060.28;5055203;28;1380;-82
2023/09/01 05:17:24;;;;;;;;;;;;;;;13.39;96.37;101058.34;5071082;28;1024;-82
2023/09/01 05:19:49;;;;;;;;;;;;;;;13.41;96.57;101072.03;5050910;28;1295;-82
2023/09/01 05:22:14;;;;;;;;;;;;;;;13.44;96.65;101066.56;5055396;28;1513;-82
2023/09/01 05:24:41;;;;;;;;;;;;;;;13.44;96.52;101056.97;5049521;28;1579;-82
2023/09/01 05:27:06;;;;;;;;;;;;;;;13.45;96.62;101066.41;5065923;28;1910;-82
2023/09/01 05:29:31;;;;;;;;;;;;;;;13.46;96.62;101064.63;5061895;28;1231;-82
2023/09/01 05:31:56;;;;;;;;;;;;;;;13.49;96.68;101059.16;5066209;28;1343;-82
2023/09/01 05:34:21;;;;;;;;;;;;;;;13.52;96.97;101053.66;5072020;28;1317;-82
2023/09/01 05:36:47;;;;;;;;;;;;;;;13.53;97.09;101052.69;5053623;28;1235;-82
2023/09/01 05:39:12;;;;;;;;;;;;;;;13.52;97.18;101056.25;5063500;28;1187;-82
2023/09/01 05:41:37;;;;;;;;;;;;;;;13.53;97.09;101056.16;5066373;28;1202;-82
2023/09/01 05:44:02;;;;;;;;;;;;;;;13.54;97.01;101068.22;5062584;28;1228;-82
2023/09/01 05:46:28;;;;;;;;;;;;;;;13.55;97.72;101063.81;5066390;28;1248;-82
2023/09/01 05:48:53;;;;;;;;;;;;;;;13.58;97.19;101063.53;5066257;28;1961;-82
2023/09/01 05:51:18;;;;;;;;;;;;;;;13.57;97.02;101056.69;5068592;28;1013;-82
2023/09/01 05:53:43;;;;;;;;;;;;;;;13.59;97.61;101064.34;5055155;28;1493;-82
2023/09/01 05:56:08;;;;;;;;;;;;;;;13.59;97.01;101059.13;5062640;28;1540;-82
2023/09/01 05:58:35;;;;;;;;;;;;;;;13.59;97.24;101059.13;5069057;28;1138;-81
2023/09/01 06:01:00;;;;;;;;;;;;;;;13.63;97.76;101061.31;5055917;28;1493;-82
2023/09/01 06:03:25;;;;;;;;;;;;;;;13.67;97.45;101067.09;5063021;28;1282;-82
2023/09/01 06:05:51;;;;;;;;;;;;;;;13.69;97.61;101065.97;5053034;28;1295;-82
2023/09/01 06:08:16;;;;;;;;;;;;;;;13.71;97.28;101056.25;5051227;28;1894;-81
2023/09/01 06:10:41;;;;;;;;;;;;;;;13.74;97.31;101053.34;5052266;28;1546;-82
2023/09/01 06:13:06;;;;;;;;;;;;;;;13.77;97.54;101062.69;5050138;28;1297;-81
2023/09/01 06:15:31;;;;;;;;;;;;;;;13.78;98.37;101054.72;5060638;28;1272;-82
2023/09/01 06:17:57;;;;;;;;;;;;;;;13.80;97.86;101062.41;5067545;28;1092;-82
2023/09/01 06:20:22;;;;;;;;;;;;;;;13.84;97.92;101062.97;5063947;28;1092;-82
2023/09/01 06:22:47;;;;;;;;;;;;;;;13.90;97.75;101059.78;5065610;28;1151;-82
2023/09/01 06:25:12;;;;;;;;;;;;;;;13.92;98.24;101063.06;5054174;28;1165;-82
2023/09/01 06:27:37;;;;;;;;;;;;;;;13.96;98.29;101073.06;5062372;28;1947;-81
2023/09/01 06:30:04;;;;;;;;;;;;;;;14.00;98.23;101073.63;5051247;28;1176;-82
2023/09/01 06:32:29;;;;;;;;;;;;;;;14.04;98.04;101080.19;5054926;28;1294;-82
2023/09/01 06:34:55;;;;;;;;;;;;;;;14.08;98.10;101076.34;5047470;28;1172;-82
2023/09/01 06:37:20;;;;;;;;;;;;;;;14.11;97.85;101085.66;5059591;28;1318;-82
2023/09/01 06:39:45;;;;;;;;;;;;;;;14.13;97.75;101081.13;5057986;28;1316;-81
2023/09/01 06:42:11;;;;;;;;;;;;;;;14.13;98.02;101087.19;5059741;28;1341;-82
2023/09/01 06:44:36;;;;;;;;;;;;;;;14.15;98.06;101087.84;5050707;28;1331;-81
2023/09/01 06:47:01;;;;;;;;;;;;;;;14.16;97.68;101079.03;5065430;28;1891;-81
2023/09/01 06:49:26;;;;;;;;;;;;;;;14.19;97.96;101089.22;5073847;28;1269;-81
2023/09/01 06:51:51;;;;;;;;;;;;;;;14.18;97.74;101087.56;5047940;28;1268;-82
2023/09/01 06:54:17;;;;;;;;;;;;;;;14.22;98.20;101088.94;5065761;28;1268;-81
2023/09/01 06:56:42;;;;;;;;;;;;;;;14.24;98.18;101086.19;5065891;28;1211;-81
2023/09/01 06:59:07;;;;;;;;;;;;;;;14.28;98.37;101093.59;5049285;28;1380;-83
2023/09/01 07:01:32;;;;;;;;;;;;;;;14.28;97.62;101088.38;5064681;28;1229;-82
2023/09/01 07:03:57;;;;;;;;;;;;;;;14.28;98.37;101092.78;5066428;28;1172;-82
2023/09/01 07:06:23;;;;;;;;;;;;;;;14.30;98.29;101086.44;5060692;28;1263;-82
2023/09/01 07:08:48;;;;;;;;;;;;;;;14.33;98.22;101082.69;5059836;28;1941;-81
2023/09/01 07:11:14;;;;;;;;;;;;;;;14.33;98.48;101078.31;5063606;28;1550;-81
2023/09/01 07:13:40;;;;;;;;;;;;;;;14.34;98.57;101077.38;5063395;28;1211;-82
2023/09/01 07:16:06;;;;;;;;;;;;;;;14.38;98.44;101071.84;5065065;28;1290;-82
2023/09/01 07:18:31;;;;;;;;;;;;;;;14.42;98.51;101073.22;5065464;28;1330;-81
2023/09/01 07:20:58;;;;;;;;;;;;;;;14.45;98.27;101068.53;5062663;28;1005;-82
2023/09/01 07:23:23;;;;;;;;;;;;;;;14.50;98.40;101081.16;5053048;28;1362;-81
2023/09/01 07:25:48;;;;;;;;;;;;;;;14.53;99.17;101078.28;5072637;28;1588;-81
2023/09/01 07:28:14;;;;;;;;;;;;;;;14.56;98.87;101070.13;5045883;28;1878;-81
2023/09/01 07:30:39;;;;;;;;;;;;;;;14.62;98.54;101072.16;5061066;28;1184;-81
2023/09/01 07:33:04;;;;;;;;;;;;;;;14.69;98.06;101075.03;5051007;28;1553;-81
2023/09/01 07:35:30;;;;;;;;;;;;;;;14.72;97.57;101072.94;5061120;28;961;-81
2023/09/01 07:37:55;;;;;;;;;;;;;;;14.77;98.09;101062.88;5052314;28;1387;-83
2023/09/01 07:40:21;;;;;;;;;;;;;;;14.80;97.88;101062.59;5064058;28;1252;-80
2023/09/01 07:42:46;;;;;;;;;;;;;;;14.81;98.26;101059.03;5066862;28;1375;-81
2023/09/01 07:45:12;;;;;;;;;;;;;;;14.84;98.34;101053.47;5065928;28;1246;-82
2023/09/01 07:47:37;;;;;;;;;;;;;;;14.90;98.23;101051.25;5066027;28;1882;-82
2023/09/01 07:50:02;;;;;;;;;;;;;;;14.92;98.01;101054.56;5053247;28;1265;-82
2023/09/01 07:52:29;;;;;;;;;;;;;;;14.95;98.67;101054.25;5067756;28;1165;-82
2023/09/01 07:54:54;;;;;;;;;;;;;;;14.97;98.42;101054.94;5045077;28;1613;-82
2023/09/01 07:57:19;;;;;;;;;;;;;;;15.00;98.22;101054.63;5064174;28;1170;-82
2023/09/01 07:59:44;;;;;;;;;;;;;;;14.99;98.53;101050.38;5066323;28;1171;-82
2023/09/01 08:02:10;;;;;;;;;;;;;;;15.07;98.13;101059.09;5045548;28;1359;-82
2023/09/01 08:04:35;;;;;;;;;;;;;;;15.12;98.58;101063.88;5047100;28;1279;-82
2023/09/01 08:07:00;;;;;;;;;;;;;;;15.15;98.47;101055.78;5044966;28;1961;-81
2023/09/01 08:09:26;;;;;;;;;;;;;;;15.19;98.22;101067.53;5049144;28;1497;-82
2023/09/01 08:11:51;;;;;;;;;;;;;;;15.25;98.59;101060.91;5066423;28;1297;-82
2023/09/01 08:14:16;;;;;;;;;;;;;;;15.30;98.32;101072.53;5053034;28;1288;-82
2023/09/01 08:16:41;;;;;;;;;;;;;;;15.33;98.34;101079.28;5065721;28;1112;-81
2023/09/01 08:19:07;;;;;;;;;;;;;;;15.35;97.81;101083.38;5052772;28;1280;-82
2023/09/01 08:21:33;;;;;;;;;;;;;;;15.38;98.57;101082.28;5061061;28;1299;-82
2023/09/01 08:23:59;;;;;;;;;;;;;;;15.40;97.94;101086.38;5065021;28;1063;-82
2023/09/01 08:26:24;;;;;;;;;;;;;;;15.44;98.30;101086.06;5062033;28;948;-82
2023/09/01 08:28:49;;;;;;;;;;;;;;;15.44;97.77;101086.06;5060645;28;1925;-82
2023/09/01 08:31:14;;;;;;;;;;;;;;;15.46;98.39;101089.34;5043349;28;1377;-82
2023/09/01 08:33:41;;;;;;;;;;;;;;;15.46;98.31;101084.13;5043724;28;1557;-82
2023/09/01 08:36:07;;;;;;;;;;;;;;;15.49;98.20;101094.28;5051455;28;1183;-82
2023/09/01 08:38:32;;;;;;;;;;;;;;;15.53;98.18;101090.38;5052764;28;1093;-82
2023/09/01 08:41:06;;;;;;;;;;;;;;;15.56;98.09;101105.78;5045392;28;1375;-82
2023/09/01 08:43:36;;;;;;;;;;;;;;;15.60;98.40;101096.69;5060222;28;1184;-82
2023/09/01 08:46:03;;;;;;;;;;;;;;;15.62;98.37;101094.72;5059118;28;1173;-82
2023/09/01 08:48:28;;;;;;;;;;;;;;;15.65;98.11;101095.28;5057661;28;1953;-83
2023/09/01 08:50:56;;;;;;;;;;;;;;;15.68;98.16;101099.38;5057635;28;1157;-82
2023/09/01 08:53:21;;;;;;;;;;;;;;;15.69;98.27;101095.78;5046826;28;1177;-82
2023/09/01 08:55:48;;;;;;;;;;;;;;;15.71;97.58;101101.66;5059831;28;1280;-82
2023/09/01 08:58:13;;;;;;;;;;;;;;;15.71;97.94;101104.28;5056698;28;1295;-82
2023/09/01 09:00:39;;;;;;;;;;;;;;;15.71;98.33;101099.06;5056431;28;1148;-82
2023/09/01 09:03:05;;;;;;;;;;;;;;;15.71;99.13;101099.06;5043194;28;1208;-81
2023/09/01 09:05:31;;;;;;;;;;;;;;;15.70;98.33;101102.66;5040612;28;1299;-82
2023/09/01 09:08:01;;;;;;;;;;;;;;;15.72;97.92;101105.94;5043201;28;1902;-82
2023/09/01 09:10:34;;;;;;;;;;;;;;;15.76;98.29;101102.03;5046206;28;1271;-83
2023/09/01 09:12:59;;;;;;;;;;;;;;;15.77;97.70;101111.56;5065838;28;1264;-82
2023/09/01 09:15:24;;;;;;;;;;;;;;;15.77;97.92;101103.72;5063782;28;1291;-83
2023/09/01 09:17:49;;;;;;;;;;;;;;;15.79;98.09;101106.97;5049016;28;1458;-82
2023/09/01 09:20:17;;;;;;;;;;;;;;;15.81;98.17;101107.63;5060975;28;895;-83
2023/09/01 09:23:02;;;;;;;;;;;;;;;15.84;98.41;101106.53;5061565;28;1222;-82
2023/09/01 09:25:31;;;;;;;;;;;;;;;15.83;98.23;101103.09;5065789;28;1244;-82
2023/09/01 09:28:00;;;;;;;;;;;;;;;15.86;98.42;101100.16;5046954;28;1957;-81
2023/09/01 09:30:26;;;;;;;;;;;;;;;15.86;98.53;101102.78;5054703;28;1266;-83
2023/09/01 09:32:59;;;;;;;;;;;;;;;15.87;98.75;101114.88;5059116;28;1103;-82
2023/09/01 09:35:26;;;;;;;;;;;;;;;15.89;98.41;101110.34;5050010;28;1313;-81
2023/09/01 09:37:56;;;;;;;;;;;;;;;15.92;98.75;101122.28;5064791;28;1410;-81
2023/09/01 09:40:21;;;;;;;;;;;;;;;15.93;99.08;101122.09;5064023;28;961;-82
2023/09/01 09:42:46;;;;;;;;;;;;;;;15.96;98.18;101128.03;5054691;28;1435;-82
2023/09/01 09:45:19;;;;;;;;;;;;;;;15.96;98.50;101128.84;5045805;28;1453;-83
2023/09/01 09:47:45;;;;;;;;;;;;;;;15.97;98.90;101119.19;5056912;28;1898;-82
2023/09/01 09:50:10;;;;;;;;;;;;;;;15.97;98.54;101122.63;5059174;28;1062;-82
2023/09/01 09:52:37;;;;;;;;;;;;;;;15.99;98.42;101128.53;5069288;28;1085;-82
2023/09/01 09:55:03;;;;;;;;;;;;;;;15.98;98.60;101132.13;5050648;28;1234;-83
2023/09/01 09:57:41;;;;;;;;;;;;;;;15.98;98.42;101126.06;5062173;28;1167;-82
2023/09/01 10:00:10;;;;;;;;;;;;;;;15.99;98.93;101127.72;5049313;28;1299;-82
2023/09/01 10:02:38;;;;;;;;;;;;;;;15.98;99.02;101128.69;5060099;28;1090;-82
2023/09/01 10:05:04;;;;;;;;;;;;;;;15.98;98.81;101131.31;5039108;28;1259;-82
2023/09/01 10:07:30;;;;;;;;;;;;;;;15.95;98.52;101121.97;5067465;28;1953;-81
2023/09/01 10:09:56;;;;;;;;;;;;;;;15.94;98.74;101128.16;5040970;28;1271;-82
2023/09/01 10:12:23;;;;;;;;;;;;;;;15.95;99.25;101131.63;5047116;28;1543;-82
2023/09/01 10:14:50;;;;;;;;;;;;;;;15.93;98.72;101129.97;5051698;28;1404;-80
2023/09/01 10:17:16;;;;;;;;;;;;;;;15.90;98.73;101125.03;5052557;28;1386;-82
2023/09/01 10:19:42;;;;;;;;;;;;;;;15.92;98.99;101135.34;5053662;28;1330;-82
2023/09/01 10:22:07;;;;;;;;;;;;;;;15.90;99.04;101129.47;5062061;28;1231;-82
2023/09/01 10:24:32;;;;;;;;;;;;;;;15.89;98.91;101131.25;5050683;28;1548;-82
2023/09/01 10:27:10;;;;;;;;;;;;;;;15.88;99.26;101132.19;5054626;28;1910;-82
2023/09/01 10:29:35;;;;;;;;;;;;;;;15.89;99.32;101128.63;5054368;28;1003;-81
2023/09/01 10:32:19;;;;;;;;;;;;;;;15.88;99.59;101132.19;5048049;28;1367;-82
2023/09/01 10:34:51;;;;;;;;;;;;;;;15.88;99.21;101126.16;5056587;28;1276;-82
2023/09/01 10:37:24;;;;;;;;;;;;;;;15.86;99.62;101134.16;5061686;28;1252;-84
2023/09/01 10:39:49;;;;;;;;;;;;;;;15.85;99.60;101132.53;5045041;28;925;-82
2023/09/01 10:42:14;;;;;;;;;;;;;;;15.86;99.55;101136.78;5058265;28;1419;-83
2023/09/01 10:44:39;;;;;;;;;;;;;;;15.89;100.00;101139.09;5064544;28;1591;-83
2023/09/01 10:47:23;;;;;;;;;;;;;;;15.95;99.71;101142.09;5050685;28;1985;-83
2023/09/01 10:49:57;;;;;;;;;;;;;;;15.98;99.92;101147.00;5053683;28;1266;-83
2023/09/01 10:52:23;;;;;;;;;;;;;;;15.97;99.73;101140.94;5064597;28;1278;-82
2023/09/01 10:55:03;;;;;;;;;;;;;;;16.00;99.65;101150.28;5061294;28;1650;-82
2023/09/01 10:57:38;;;;;;;;;;;;;;;16.02;99.78;101148.34;5061083;28;1682;-82
2023/09/01 11:00:22;;;;;;;;;;;;;;;16.04;99.83;101162.09;5059907;28;1315;-82
2023/09/01 11:02:47;;;;;;;;;;;;;;;16.05;100.00;101148.03;5040590;28;1543;-82
2023/09/01 11:05:12;;;;;;;;;;;;;;;16.04;100.00;101146.38;5059744;28;1036;-82
2023/09/01 11:07:56;;;;;;;;;;;;;;;16.03;99.94;101145.56;5044783;28;1949;-82
2023/09/01 11:10:25;;;;;;;;;;;;;;;16.08;100.00;101152.97;5055120;28;1339;-83
2023/09/01 11:12:50;;;;;;;;;;;;;;;16.13;100.00;101145.47;5051954;28;1530;-82
2023/09/01 11:15:15;;;;;;;;;;;;;;;16.16;100.00;101150.41;5058713;28;1090;-82
2023/09/01 11:17:43;;;;;;;;;;;;;;;16.18;100.00;101144.03;5057138;28;1296;-83
2023/09/01 11:20:10;;;;;;;;;;;;;;;16.21;100.00;101142.91;5063378;28;1054;-82
2023/09/01 11:22:36;;;;;;;;;;;;;;;16.23;100.00;101156.69;5054352;28;1237;-83
2023/09/01 11:25:02;;;;;;;;;;;;;;;16.24;100.00;101153.09;5059549;28;1234;-81
2023/09/01 11:27:28;;;;;;;;;;;;;;;16.25;100.00;101154.72;5066442;28;1973;-83
2023/09/01 11:29:54;;;;;;;;;;;;;;;16.27;100.00;101150.13;5059923;28;1065;-82
2023/09/01 11:32:28;;;;;;;;;;;;;;;16.29;100.00;101156.06;5063218;28;1192;-82
2023/09/01 11:34:53;;;;;;;;;;;;;;;16.33;100.00;101157.38;5064760;28;1210;-82
2023/09/01 11:37:33;;;;;;;;;;;;;;;16.37;100.00;101163.94;5048696;28;1284;-82
2023/09/01 11:39:58;;;;;;;;;;;;;;;16.41;100.00;101167.91;5046425;28;1223;-82
2023/09/01 11:42:23;;;;;;;;;;;;;;;16.44;100.00;101159.72;5048751;28;1387;-82
2023/09/01 11:44:48;;;;;;;;;;;;;;;16.49;100.00;101171.53;5053342;28;1257;-83
2023/09/01 11:47:14;;;;;;;;;;;;;;;16.50;99.83;101170.56;5047983;28;1967;-82
2023/09/01 11:49:42;;;;;;;;;;;;;;;16.53;100.00;101178.13;5044681;28;1308;-82
2023/09/01 11:52:07;;;;;;;;;;;;;;;16.54;99.96;101174.53;5060104;28;1095;-82
2023/09/01 11:54:39;;;;;;;;;;;;;;;16.53;99.79;101178.13;5046329;28;1174;-82
2023/09/01 11:57:13;;;;;;;;;;;;;;;16.56;99.62;101177.78;5043173;28;1295;-83
2023/09/01 11:59:45;;;;;;;;;;;;;;;16.59;100.00;101177.50;5057897;28;1342;-83
2023/09/01 12:02:12;;;;;;;;;;;;;;;16.59;99.81;101187.97;5047227;28;1602;-83
2023/09/01 12:04:44;;;;;;;;;;;;;;;16.64;100.00;101185.72;5056750;28;1089;-81
2023/09/01 12:07:20;;;;;;;;;;;;;;;16.66;99.84;101183.75;5061692;28;1886;-81
2023/09/01 12:09:45;;;;;;;;;;;;;;;16.69;99.92;101186.06;5043662;28;1341;-83
2023/09/01 12:12:10;;;;;;;;;;;;;;;16.73;100.00;101185.59;5063903;28;1504;-82
2023/09/01 12:14:35;;;;;;;;;;;;;;;16.84;100.00;101187.13;5039292;28;1603;-81
2023/09/01 12:17:03;;;;;;;;;;;;;;;16.88;99.97;101190.28;5060158;28;1049;-82
2023/09/01 12:19:35;;;;;;;;;;;;;;;16.94;100.00;101195.69;5058795;28;916;-82
2023/09/01 12:22:00;;;;;;;;;;;;;;;17.02;100.00;101189.66;5048795;28;1228;-82
2023/09/01 12:24:25;;;;;;;;;;;;;;;17.06;100.00;101196.22;5053631;28;1342;-81
2023/09/01 12:26:51;;;;;;;;;;;;;;;17.12;99.90;101205.25;5061551;28;1897;-82
2023/09/01 12:29:16;;;;;;;;;;;;;;;17.17;99.40;101195.94;5062083;28;1079;-82
2023/09/01 12:31:44;;;;;;;;;;;;;;;17.25;99.73;101200.38;5057626;28;1179;-81
2023/09/01 12:34:10;;;;;;;;;;;;;;;17.31;99.19;101215.47;5057171;28;1458;-83
2023/09/01 12:36:35;;;;;;;;;;;;;;;17.39;100.00;101212.06;5051708;28;1368;-82
2023/09/01 12:39:00;;;;;;;;;;;;;;;17.50;99.30;101215.22;5061046;28;1092;-81
2023/09/01 12:41:25;;;;;;;;;;;;;;;17.66;99.11;101213.59;5059008;28;1477;-82